createdAt,value
2023-04-05T00:01:07.457Z,6.09
2023-04-05T00:06:12.971Z,6.54
2023-04-05T00:11:15.564Z,6.64
2023-04-05T00:16:20.802Z,6.78
2023-04-05T00:21:24.460Z,6.64
2023-04-05T00:26:27.368Z,6.17
2023-04-05T00:31:34.567Z,6.38
2023-04-05T00:36:37.224Z,6.48
2023-04-05T00:41:40.091Z,6.47
2023-04-05T00:46:43.957Z,6.49
2023-04-05T00:51:47.136Z,6.41
2023-04-05T00:56:53.025Z,6.28
2023-04-05T01:02:01.947Z,6.29
2023-04-05T01:07:10.245Z,6.24
2023-04-05T01:12:18.393Z,6.13
2023-04-05T01:17:23.972Z,6.10
2023-04-05T01:23:00.927Z,6.13
2023-04-05T01:28:20.046Z,5.70
2023-04-05T01:33:30.548Z,5.87
2023-04-05T01:38:34.578Z,5.87
2023-04-05T01:43:37.163Z,5.86
2023-04-05T01:48:41.139Z,5.58
2023-04-05T01:53:43.698Z,5.65
2023-04-05T01:58:46.262Z,5.83
2023-04-05T02:03:50.632Z,5.78
2023-04-05T02:08:53.361Z,4.88
2023-04-05T02:13:55.930Z,5.51
2023-04-05T02:19:00.180Z,5.27
2023-04-05T02:24:02.723Z,5.47
2023-04-05T02:29:05.511Z,5.58
2023-04-05T02:34:11.570Z,5.56
2023-04-05T02:39:14.371Z,5.46
2023-04-05T02:44:17.007Z,5.37
2023-04-05T02:49:21.294Z,5.37
2023-04-05T02:54:23.806Z,5.36
2023-04-05T02:59:32.149Z,4.98
2023-04-05T03:04:36.787Z,5.24
2023-04-05T03:09:39.918Z,5.27
2023-04-05T03:14:46.002Z,4.80
2023-04-05T03:19:53.447Z,5.06
2023-04-05T03:25:00.025Z,5.21
2023-04-05T03:30:03.252Z,5.12
2023-04-05T03:35:10.573Z,4.94
2023-04-05T03:40:14.661Z,4.90
2023-04-05T03:45:22.076Z,4.81
2023-04-05T03:50:28.639Z,4.59
2023-04-05T03:55:32.177Z,4.39
2023-04-05T04:00:39.403Z,4.87
2023-04-05T04:05:51.603Z,4.95
2023-04-05T04:10:55.544Z,5.01
2023-04-05T04:16:21.046Z,4.96
2023-04-05T04:21:56.656Z,4.90
2023-04-05T04:27:52.684Z,4.75
2023-04-05T04:33:43.513Z,4.50
2023-04-05T04:39:39.464Z,4.74
2023-04-05T04:45:20.926Z,4.81
2023-04-05T04:50:52.968Z,4.61
2023-04-05T04:56:17.440Z,4.64
2023-04-05T05:01:40.934Z,4.73
2023-04-05T05:07:05.782Z,4.58
2023-04-05T05:12:31.259Z,4.54
2023-04-05T05:17:34.706Z,3.80
2023-04-05T05:22:37.838Z,4.53
2023-04-05T05:27:42.119Z,4.76
2023-04-05T05:32:44.746Z,4.65
2023-04-05T05:37:47.787Z,4.69
2023-04-05T05:42:51.678Z,4.82
2023-04-05T05:47:54.292Z,4.87
2023-04-05T05:52:59.190Z,4.39
2023-04-05T05:58:05.242Z,4.65
2023-04-05T06:03:08.117Z,4.64
2023-04-05T06:08:10.735Z,4.79
2023-04-05T06:13:14.647Z,5.08
2023-04-05T06:18:18.027Z,5.11
2023-04-05T06:23:20.562Z,5.23
2023-04-05T06:28:24.447Z,5.40
2023-04-05T06:33:27.426Z,5.55
2023-04-05T06:38:29.992Z,5.24
2023-04-05T06:43:33.870Z,5.35
2023-04-05T06:48:36.412Z,5.34
2023-04-05T06:53:38.952Z,5.64
2023-04-05T06:58:44.036Z,5.90
2023-04-05T07:03:46.587Z,6.08
2023-04-05T07:15:37.931Z,6.43
2023-04-05T07:20:40.684Z,6.60
2023-04-05T07:25:43.359Z,6.70
2023-04-05T07:30:47.369Z,6.85
2023-04-05T07:35:53.050Z,6.99
2023-04-05T07:40:56.293Z,7.07
2023-04-05T07:46:04.184Z,7.13
2023-04-05T07:51:08.385Z,7.20
2023-04-05T07:56:13.390Z,7.33
2023-04-05T08:01:17.277Z,7.36
2023-04-05T08:06:19.833Z,7.47
2023-04-05T08:11:27.102Z,7.55
2023-04-05T08:16:35.986Z,7.40
2023-04-05T08:21:39.608Z,7.67
2023-04-05T08:26:43.903Z,7.72
2023-04-05T08:31:47.862Z,7.89
2023-04-05T08:36:50.480Z,7.99
2023-04-05T08:41:59.216Z,8.06
2023-04-05T08:47:03.217Z,8.17
2023-04-05T08:52:06.701Z,8.23
2023-04-05T08:57:10.469Z,8.38
2023-04-05T09:02:18.346Z,8.54
2023-04-05T09:07:22.316Z,8.78
2023-04-05T09:12:26.594Z,8.76
2023-04-05T09:17:32.248Z,8.86
2023-04-05T09:22:45.190Z,8.86
2023-04-05T09:27:56.438Z,8.84
2023-04-05T09:33:00.637Z,8.87
2023-04-05T09:38:05.074Z,9.10
2023-04-05T09:43:10.014Z,9.14
2023-04-05T09:48:13.977Z,8.95
2023-04-05T09:53:16.782Z,9.15
2023-04-05T09:58:22.967Z,9.29
2023-04-05T10:03:27.593Z,9.27
2023-04-05T10:08:30.520Z,9.21
2023-04-05T10:13:33.396Z,9.27
2023-04-05T10:18:45.153Z,9.43
2023-04-05T10:23:55.260Z,9.52
2023-04-05T10:29:09.112Z,9.65
2023-04-05T10:34:33.603Z,9.81
2023-04-05T10:39:41.959Z,9.89
2023-04-05T10:44:46.888Z,9.95
2023-04-05T10:49:54.773Z,9.88
2023-04-05T10:54:59.932Z,10.07
2023-04-05T11:00:03.689Z,10.04
2023-04-05T11:05:28.701Z,10.03
2023-04-05T11:10:31.854Z,10.08
2023-04-05T11:15:35.552Z,10.24
2023-04-05T11:20:45.080Z,10.42
2023-04-05T11:25:50.814Z,10.47
2023-04-05T11:30:57.159Z,10.95
2023-04-05T11:36:04.553Z,11.20
2023-04-05T11:41:12.212Z,11.34
2023-04-05T11:46:15.928Z,11.54
2023-04-05T11:51:23.743Z,11.72
2023-04-05T11:56:26.552Z,11.99
2023-04-05T12:01:29.167Z,12.18
2023-04-05T12:06:33.872Z,12.42
2023-04-05T12:11:38.834Z,12.57
2023-04-05T12:16:50.003Z,12.79
2023-04-05T12:21:54.948Z,13.04
2023-04-05T12:26:59.856Z,13.29
2023-04-05T12:32:04.523Z,13.49
2023-04-05T12:37:08.512Z,13.55
2023-04-05T12:42:18.638Z,13.83
2023-04-05T12:47:22.412Z,13.99
2023-04-05T12:52:28.615Z,14.21
2023-04-05T12:57:32.821Z,14.35
2023-04-05T13:02:35.770Z,14.70
2023-04-05T13:07:42.762Z,15.03
2023-04-05T13:12:46.479Z,15.26
2023-04-05T13:17:50.197Z,15.38
2023-04-05T13:22:54.953Z,15.22
2023-04-05T13:27:57.787Z,15.08
2023-04-05T13:33:00.466Z,15.31
2023-04-05T13:38:05.593Z,15.76
2023-04-05T13:43:08.918Z,15.44
2023-04-05T13:48:11.502Z,15.33
2023-04-05T13:53:15.509Z,15.54
2023-04-05T13:58:18.549Z,15.80
2023-04-05T14:03:21.419Z,15.83
2023-04-05T14:08:26.951Z,15.30
2023-04-05T14:13:29.910Z,15.52
2023-04-05T14:18:35.490Z,15.18
2023-04-05T14:23:40.644Z,15.17
2023-04-05T14:28:43.337Z,15.17
2023-04-05T14:33:46.395Z,14.94
2023-04-05T14:38:50.275Z,15.22
2023-04-05T14:43:52.840Z,14.58
2023-04-05T14:48:55.407Z,14.44
2023-04-05T14:53:59.338Z,14.11
2023-04-05T14:59:02.447Z,13.73
2023-04-05T15:04:05.523Z,14.04
2023-04-05T15:09:10.071Z,14.12
2023-04-05T15:14:21.334Z,14.58
2023-04-05T15:19:28.022Z,14.16
2023-04-05T15:24:31.932Z,13.71
2023-04-05T15:29:34.912Z,13.41
2023-04-05T15:34:38.138Z,13.35
2023-04-05T15:39:42.520Z,13.22
2023-04-05T15:44:46.541Z,13.26
2023-04-05T15:49:51.198Z,13.37
2023-04-05T15:54:55.380Z,13.18
2023-04-05T15:59:58.345Z,12.88
2023-04-05T16:05:00.941Z,12.93
2023-04-05T16:10:06.803Z,12.76
2023-04-05T16:15:09.880Z,12.73
2023-04-05T16:20:13.049Z,12.53
2023-04-05T16:25:18.099Z,12.42
2023-04-05T16:30:20.989Z,12.44
2023-04-05T16:35:24.022Z,12.39
2023-04-05T16:40:28.026Z,12.34
2023-04-05T16:45:31.861Z,12.17
2023-04-05T16:50:34.702Z,12.12
2023-04-05T16:55:38.904Z,12.12
2023-04-05T17:00:41.807Z,11.99
2023-04-05T17:05:44.425Z,11.92
2023-04-05T17:10:48.326Z,11.81
2023-04-05T17:15:51.428Z,11.73
2023-04-05T17:20:54.517Z,11.73
2023-04-05T17:25:59.418Z,11.52
2023-04-05T17:31:02.294Z,11.42
2023-04-05T17:36:06.459Z,11.32
2023-04-05T17:41:10.435Z,11.10
2023-04-05T17:46:14.737Z,10.97
2023-04-05T17:51:17.448Z,10.84
2023-04-05T17:56:26.029Z,10.74
2023-04-05T18:01:32.035Z,10.75
2023-04-05T18:06:37.851Z,10.45
2023-04-05T18:11:45.517Z,10.55
2023-04-05T18:16:55.305Z,10.43
2023-04-05T18:28:33.127Z,10.67
2023-04-05T18:34:14.447Z,10.58
2023-04-05T18:39:19.613Z,10.55
2023-04-05T18:44:22.749Z,10.49
2023-04-05T18:49:30.070Z,10.39
2023-04-05T18:54:33.325Z,10.28
2023-04-05T18:59:37.037Z,10.15
2023-04-05T19:04:41.937Z,10.06
2023-04-05T19:09:44.836Z,10.04
2023-04-05T19:14:47.683Z,9.99
2023-04-05T19:19:51.744Z,9.96
2023-04-05T19:24:54.778Z,9.77
2023-04-05T19:29:57.909Z,9.71
2023-04-05T19:35:06.196Z,9.45
2023-04-05T19:40:12.220Z,9.42
2023-04-05T19:45:23.622Z,9.43
2023-04-05T19:50:48.083Z,9.30
2023-04-05T19:55:51.077Z,9.19
2023-04-05T20:00:55.114Z,9.08
2023-04-05T20:06:04.450Z,8.57
2023-04-05T20:11:09.301Z,8.81
2023-04-05T20:16:13.892Z,8.59
2023-04-05T20:21:18.800Z,8.58
2023-04-05T20:26:27.624Z,8.67
2023-04-05T20:31:32.758Z,8.63
2023-04-05T20:36:39.128Z,8.59
2023-04-05T20:41:41.847Z,8.58
2023-04-05T20:46:44.498Z,8.42
2023-04-05T20:51:50.478Z,7.91
2023-04-05T20:56:53.088Z,8.12
2023-04-05T21:01:56.044Z,7.90
2023-04-05T21:07:00.098Z,7.76
2023-04-05T21:12:03.982Z,7.96
2023-04-05T21:17:06.909Z,7.90
2023-04-05T21:22:10.909Z,7.89
2023-04-05T21:27:14.462Z,7.86
2023-04-05T21:32:17.380Z,7.68
2023-04-05T21:37:21.244Z,7.66
2023-04-05T21:42:23.891Z,7.53
2023-04-05T21:47:26.466Z,7.31
2023-04-05T21:52:31.111Z,7.49
2023-04-05T21:57:34.440Z,7.26
2023-04-05T22:02:37.249Z,7.39
2023-04-05T22:07:41.154Z,7.43
2023-04-05T22:12:43.782Z,7.33
2023-04-05T22:17:46.374Z,7.25
2023-04-05T22:22:50.298Z,7.14
2023-04-05T22:27:52.946Z,7.13
2023-04-05T22:32:55.564Z,7.14
2023-04-05T22:37:59.482Z,7.00
2023-04-05T22:43:02.029Z,7.08
2023-04-05T22:48:04.935Z,6.83
2023-04-05T22:53:09.250Z,6.56
2023-04-05T22:58:11.819Z,6.38
2023-04-05T23:03:14.354Z,6.32
2023-04-05T23:08:18.623Z,6.56
2023-04-05T23:13:21.391Z,6.24
2023-04-05T23:18:25.217Z,6.31
2023-04-05T23:23:29.656Z,6.57
2023-04-05T23:28:32.190Z,6.65
2023-04-05T23:33:35.783Z,6.53
2023-04-05T23:38:39.805Z,6.45
2023-04-05T23:43:42.592Z,6.35
2023-04-05T23:48:45.798Z,6.37
2023-04-05T23:53:49.758Z,6.23
2023-04-05T23:58:52.342Z,6.21
